Latest Coastal Weather Observations for Cape Jaffa

IDS60701

Issued at 5:11 am CDT Tuesday 19 December 2017 (issued every 10 minutes, with the page automatically refreshed every 10 minutes)

About coastal observations | Map of coastal stations | Coastal observations for SA | Marine services | Other Formats
Station Details ID: 026095 Name: THE LIMESTONE Lat: -36.97 Lon: 139.72 Height: 17.0 m
Data from the previous 72 hours. | See also: Recent months at Cape Jaffa
Date/Time
CDT
Temp
°C
Wind Pressure Rain since
9am
mm
Weather Cloud Vis
km
Sea
Height
m
Swell
Dir  Spd
kts
Gust
kts
hPa Trend Height
m
Period
s
Dir
19/05:00am 19.8 N 13 16 998.9 - 3.0 - - - - - - -
19/04:30am 20.0 N 13 18 999.1 - 2.8 - - - - - - -
19/04:00am 20.1 NNE 10 13 999.1 - 2.6 - - - - - - -
19/03:49am 19.9 NNE 11 14 998.7 - 2.4 - - - - - - -
19/03:30am 19.9 NNW 10 12 1000.7 - 1.0 - - - - - - -
19/03:00am 20.5 WNW 12 17 1000.7 - 0.4 Rain - - - - - -
19/02:30am 20.5 WNW 17 22 1001.1 - 0.0 - - - - - - -
19/02:01am 22.8 WNW 15 25 1000.9 - 0.0 - - - - - - -
19/02:00am 22.9 WNW 14 24 1000.9 - 0.0 - - - - - - -
19/01:59am 22.9 W 13 21 1000.8 - 0.0 - - - - - - -
19/01:30am 21.9 WSW 10 14 998.8 - 0.0 - - - - - - -
19/01:00am 22.5 W 10 13 999.8 - 0.0 - - - - - - -
19/12:30am 25.3 WNW 10 14 1001.1 - 0.0 - - - - - - -
19/12:00am 25.1 WNW 3 6 999.9 - 0.0 - - - - - - -
 
Date/Time
CDT
Temp
°C
Wind Pressure Rain since
9am
mm
Weather Cloud Vis
km
Sea
Height
m
Swell
Dir  Spd
kts
Gust
kts
hPa Trend Height
m
Period
s
Dir
18/11:30pm 26.7 NNE 11 18 1000.3 - 0.0 - - - - - - -
18/11:00pm 26.2 ENE 1 4 999.1 - 0.0 - - - - - - -
18/10:30pm 26.8 E 4 5 998.7 - 0.0 - - - - - - -
18/10:00pm 26.2 E 5 6 998.6 - 0.0 - - - - - - -
18/09:30pm 26.5 NE 6 7 999.6 - 0.0 - - - - - - -
18/09:00pm 27.5 ENE 8 10 999.3 - 0.0 - - - - - - -
18/08:30pm 28.0 ENE 7 10 1000.0 - 0.0 - - - - - - -
18/08:00pm 27.1 NE 8 9 1000.0 - 0.0 - - - - - - -
18/07:30pm 27.2 NE 12 17 1000.1 - 0.0 - - - - - - -
18/07:00pm 28.1 NNE 12 18 1001.3 - 0.0 - - - - - - -
18/06:30pm 30.3 NE 15 24 1001.4 - 0.0 - - - - - - -
18/06:00pm 29.8 NNE 14 17 1001.5 - 0.0 - - - - - - -
18/05:30pm 31.2 ENE 7 12 1001.8 - 0.0 - - - - - - -
18/05:00pm 31.1 ENE 12 15 1002.0 - 0.0 - - - - - - -
18/04:30pm 31.5 ENE 11 13 1002.6 - 0.0 - - - - - - -
18/04:00pm 31.0 NE 10 13 1003.0 - 0.0 - - - - - - -
18/03:30pm 32.8 NE 12 15 1003.5 - 0.0 - - - - - - -
18/03:00pm 33.8 NE 14 18 1003.6 - 0.0 - - - - - - -
18/02:30pm 32.4 NE 13 17 1004.1 - 0.0 - - - - - - -
18/02:00pm 29.7 NNE 9 12 1004.6 - 0.0 - - - - - - -
18/01:30pm 29.0 NNE 9 13 1005.3 - 0.0 - - - - - - -
18/01:00pm 27.6 N 10 13 1006.2 - 0.0 - - - - - - -
18/12:30pm 27.9 N 11 15 1006.1 - 0.0 - - - - - - -
18/12:00pm 27.3 N 14 18 1006.2 - 0.0 - - - - - - -
18/11:30am 28.0 NNE 18 23 1006.2 - 0.0 - - - - - - -
18/11:00am 27.9 NNE 17 21 1006.4 - 0.0 - - - - - - -
18/10:30am 27.4 NNE 12 16 1007.1 - 0.0 - - - - - - -
18/10:00am 27.2 NNE 12 17 1007.5 - 0.0 - - - - - - -
18/09:30am 26.3 NNE 13 18 1007.6 - 0.0 - - - - - - -
18/09:00am 25.5 NNE 14 17 1007.6 - 0.0 - - - - - - -
18/08:30am 24.8 NNE 13 17 1008.0 - 0.0 - - - - - - -
18/08:00am 24.3 NE 11 16 1008.0 - 0.0 - - - - - - -
18/07:30am 22.0 ENE 7 9 1008.1 - 0.0 - - - - - - -
18/07:00am 21.3 ENE 9 11 1007.9 - 0.0 - - - - - - -
18/06:30am 20.3 ENE 8 11 1007.7 - 0.0 - - - - - - -
18/06:00am 19.6 ENE 8 9 1007.7 - 0.0 - - - - - - -
18/05:30am 19.5 NE 7 8 1007.5 - 0.0 - - - - - - -
18/05:00am 20.0 ENE 8 9 1007.5 - 0.0 - - - - - - -
18/04:30am 20.5 ENE 8 9 1007.6 - 0.0 - - - - - - -
18/04:00am 20.7 ENE 9 11 1007.6 - 0.0 - - - - - - -
18/03:30am 20.9 E 9 11 1007.9 - 0.0 - - - - - - -
18/03:00am 21.0 E 9 11 1007.9 - 0.0 - - - - - - -
18/02:30am 21.4 ENE 10 12 1008.4 - 0.0 - - - - - - -
18/02:00am 21.2 E 8 10 1008.9 - 0.0 - - - - - - -
18/01:30am 21.4 E 9 11 1009.1 - 0.0 - - - - - - -
18/01:00am 22.1 E 11 13 1009.4 - 0.0 - - - - - - -
18/12:30am 23.5 E 12 16 1009.8 - 0.0 - - - - - - -
18/12:00am 24.0 E 11 14 1010.4 - 0.0 - - - - - - -
 
Date/Time
CDT
Temp
°C
Wind Pressure Rain since
9am
mm
Weather Cloud Vis
km
Sea
Height
m
Swell
Dir  Spd
kts
Gust
kts
hPa Trend Height
m
Period
s
Dir
17/11:30pm 23.9 ESE 9 12 1010.8 - 0.0 - - - - - - -
17/11:00pm 23.0 E 9 11 1010.8 - 0.0 - - - - - - -
17/10:30pm 23.2 E 9 12 1011.0 - 0.0 - - - - - - -
17/10:00pm 23.5 E 10 12 1010.9 - 0.0 - - - - - - -
17/09:30pm 23.8 E 9 11 1010.7 - 0.0 - - - - - - -
17/09:00pm 24.1 E 7 9 1010.6 - 0.0 - - - - - - -
17/08:30pm 23.9 E 7 9 1010.5 - 0.0 - - - - - - -
17/08:00pm 25.0 E 6 8 1010.4 - 0.0 - - - - - - -
17/07:30pm 25.8 ESE 4 7 1010.0 - 0.0 - - - - - - -
17/07:00pm 25.8 ESE 7 10 1009.7 - 0.0 - - - - - - -
17/06:30pm 25.5 ESE 6 10 1010.3 - 0.0 - - - - - - -
17/06:00pm 24.6 SSE 6 9 1010.9 - 0.0 - - - - - - -
17/05:30pm 22.2 S 8 10 1011.6 - 0.0 - - - - - - -
17/05:00pm 21.4 SSW 13 16 1012.2 - 0.0 - - - - - - -
17/04:30pm 21.9 SSW 12 14 1012.5 - 0.0 - - - - - - -
17/04:00pm 22.9 SSW 9 11 1012.5 - 0.0 - - - - - - -
17/03:30pm 23.4 SSW 11 14 1012.7 - 0.0 - - - - - - -
17/03:00pm 24.1 SSW 8 10 1013.0 - 0.0 - - - - - - -
17/02:30pm 24.3 SSW 9 13 1013.0 - 0.0 - - - - - - -
17/02:00pm 27.0 SW 4 9 1013.1 - 0.0 - - - - - - -
17/01:30pm 24.9 SSW 7 9 1013.5 - 0.0 - - - - - - -
17/01:00pm 24.9 SSW 5 7 1014.2 - 0.0 - - - - - - -
17/12:30pm 26.4 ENE 5 9 1014.5 - 0.0 - - - - - - -
17/12:00pm 25.1 E 7 11 1015.0 - 0.0 - - - - - - -
17/11:30am 24.0 E 4 8 1015.6 - 0.0 - - - - - - -
17/11:00am 22.5 E 5 8 1015.5 - 0.0 - - - - - - -
17/10:30am 21.4 SE 5 6 1015.5 - 0.0 - - - - - - -
17/10:00am 20.0 E 5 8 1015.8 - 0.0 - - - - - - -
17/09:30am 19.2 E 7 9 1015.6 - 0.0 - - - - - - -
17/09:00am 18.6 E 9 12 1015.5 - 0.0 - - - - - - -
17/08:30am 17.9 E 12 16 1015.5 - 0.0 - - - - - - -
17/08:00am 17.1 E 13 18 1015.4 - 0.0 - - - - - - -
17/07:30am 15.3 ESE 8 11 1014.9 - 0.0 - - - - - - -
17/07:00am 14.2 E 8 12 1014.8 - 0.0 - - - - - - -
17/06:30am 13.7 E 9 12 1014.4 - 0.0 - - - - - - -
17/06:00am 13.6 E 9 13 1014.3 - 0.0 - - - - - - -
17/05:30am 13.4 ESE 5 9 1014.5 - 0.0 - - - - - - -
17/05:00am 13.0 SSE 5 7 1014.6 - 0.0 - - - - - - -
17/04:30am 13.0 SSE 5 7 1014.6 - 0.0 - - - - - - -
17/04:00am 13.3 SE 5 8 1014.3 - 0.0 - - - - - - -
17/03:30am 13.8 SE 7 10 1014.3 - 0.0 - - - - - - -
17/03:00am 13.7 SE 5 8 1014.7 - 0.0 - - - - - - -
17/02:30am 13.7 SE 6 10 1014.8 - 0.0 - - - - - - -
17/02:00am 13.9 SE 6 9 1015.4 - 0.0 - - - - - - -
17/01:30am 14.4 SE 8 12 1015.6 - 0.0 - - - - - - -
17/01:00am 14.5 SSE 7 10 1016.2 - 0.0 - - - - - - -
17/12:30am 14.7 SE 8 12 1016.2 - 0.0 - - - - - - -
17/12:00am 15.1 SE 7 11 1016.5 - 0.0 - - - - - - -
 
Date/Time
CDT
Temp
°C
Wind Pressure Rain since
9am
mm
Weather Cloud Vis
km
Sea
Height
m
Swell
Dir  Spd
kts
Gust
kts
hPa Trend Height
m
Period
s
Dir
16/11:30pm 15.0 SE 5 7 1016.6 - 0.0 - - - - - - -
16/11:00pm 15.0 SSE 6 9 1016.7 - 0.0 - - - - - - -
16/10:30pm 15.8 SSE 7 10 1016.7 - 0.0 - - - - - - -
16/10:00pm 15.9 S 11 14 1016.5 - 0.0 - - - - - - -
16/09:30pm 16.6 S 11 14 1016.5 - 0.0 - - - - - - -
16/09:00pm 16.8 S 12 16 1016.4 - 0.0 - - - - - - -
16/08:30pm 16.8 S 11 15 1016.4 - 0.0 - - - - - - -
16/08:00pm 17.5 SSW 13 16 1016.2 - 0.0 - - - - - - -
16/07:30pm 18.1 S 13 16 1015.5 - 0.0 - - - - - - -
16/07:00pm 19.1 SSW 13 16 1015.7 - 0.0 - - - - - - -
16/06:30pm 19.2 SSW 14 16 1015.4 - 0.0 - - - - - - -
16/06:00pm 20.0 SW 12 15 1015.2 - 0.0 - - - - - - -
16/05:30pm 20.3 SSW 12 15 1015.0 - 0.0 - - - - - - -
16/05:00pm 20.5 WSW 10 13 1015.1 - 0.0 - - - - - - -
16/04:30pm 20.8 SW 10 12 1015.2 - 0.0 - - - - - - -
16/04:00pm 20.8 WSW 10 13 1015.3 - 0.0 - - - - - - -
16/03:30pm 21.5 SW 9 16 1015.5 - 0.0 - - - - - - -
16/03:00pm 20.6 SW 11 15 1015.6 - 0.0 - - - - - - -
16/02:30pm 21.1 WSW 11 15 1015.9 - 0.0 - - - - - - -
16/02:00pm 21.3 WSW 9 13 1016.0 - 0.0 - - - - - - -
16/01:30pm 21.1 W 9 12 1016.4 - 0.0 - - - - - - -
16/01:00pm 20.7 WSW 9 12 1016.5 - 0.0 - - - - - - -
16/12:30pm 21.0 WSW 9 13 1016.4 - 0.0 - - - - - - -
16/12:00pm 20.3 WSW 7 11 1016.4 - 0.0 - - - - - - -
16/11:30am 21.2 W 8 13 1016.3 - 0.0 - - - - - - -
16/11:00am 20.4 WSW 8 12 1016.3 - 0.0 - - - - - - -
16/10:30am 20.3 WSW 8 11 1016.2 - 0.0 - - - - - - -
16/10:00am 19.0 W 6 10 1016.0 - 0.0 - - - - - - -
16/09:30am 18.9 WSW 7 11 1016.1 - 0.0 - - - - - - -
16/09:00am 18.6 SW 5 7 1015.9 - 0.0 - - - - - - -
16/08:30am 18.1 WSW 6 8 1015.6 - 0.0 - - - - - - -
16/08:00am 17.8 SW 5 7 1015.3 - 0.0 - - - - - - -
16/07:30am 17.0 SW 5 7 1014.9 - 0.0 - - - - - - -
16/07:00am 16.9 SW 5 7 1014.3 - 0.0 - - - - - - -
16/06:30am 15.4 WSW 6 8 1014.0 - 0.0 - - - - - - -
16/06:00am 14.4 SW 5 6 1013.7 - 0.0 - - - - - - -
16/05:30am 14.6 WSW 7 9 1013.6 - 0.0 - - - - - - -

Other Formats:

Comma delimited format used in spreadsheet applications
http://www.bom.gov.au/fwo/IDS60701/IDS60701.94813.axf

JavaScript Object Notation format (JSON) in row-major order
http://www.bom.gov.au/fwo/IDS60701/IDS60701.94813.json